22:05
Airports
Links
Donate
Help keep this website running!
PayPal
Bitcoin
METAR
KBFI 182153Z 17016G21KT 10SM -RA BKN035 OVC045 16/13 A2965 RMK AO2 RAB02E14B47 SLP041 P0000 T01610133
Current Weather Conditions at KBFI
VFR 21:53:00 18-10-17
Automated station
Altimeter:29.65 hg
Temp:16.1°c 61°f
Dew point:13.3°c 55°f
Wind:16 knots, 18.4 mph, 8 m/s, from 170°
Visibility:10.0 statute miles
4500(OVC) Overcast
3500(BKN) Broken
Past METAR reports
VFR 20:53:00 18-10-17
Automated station
Altimeter:29.69 hg
Temp:14.4°c 57°f
Dew point:12.8°c 54°f
Wind:15 knots, 17.3 mph, 8 m/s, from 150°
Visibility:10.0 statute miles
4500(OVC) Overcast
3300(SCT) Scattered
KBFI 182053Z 15015G21KT 10SM SCT033 OVC045 14/13 A2969 RMK AO2 RAE31 SLP054 P0001 60009 T01440128 58031
VFR 19:53:00 18-10-17
Automated station
Altimeter:29.73 hg
Temp:12.8°c 54°f
Dew point:11.7°c 52°f
Wind:15 knots, 17.3 mph, 8 m/s, from 150°
Visibility:9.0 statute miles
8500(OVC) Overcast
4600(BKN) Broken
3500(FEW) A few
KBFI 181953Z 15015KT 9SM -RA FEW035 BKN046 OVC085 13/12 A2973 RMK AO2 PK WND 17027/1932 SLP065 P0004 T01280117
MVFR 18:53:00 18-10-17
Automated station
Altimeter:29.76 hg
Temp:11.1°c 52°f
Dew point:9.4°c 48°f
Wind:11 knots, 12.7 mph, 6 m/s, from 160°
Visibility:7.0 statute miles
2800(OVC) Overcast
KBFI 181853Z 16011KT 7SM -RA OVC028 11/09 A2976 RMK AO2 SLP078 P0004 T01110094
MVFR 18:33:00 18-10-17
Automated station
Altimeter:29.77 hg
Temp:10.6°c 50°f
Dew point:8.9°c 46°f
Wind:5 knots, 5.8 mph, 3 m/s, from 190°
Visibility:8.0 statute miles
2900(OVC) Overcast
KBFI 181833Z 19005KT 8SM -RA OVC029 11/09 A2977 RMK AO2 P0002 T01060089
MVFR 18:21:00 18-10-17
Automated station
Altimeter:29.78 hg
Temp:10.0°c 50°f
Dew point:8.9°c 46°f
Wind:6 knots, 6.9 mph, 3 m/s, from 160°
Visibility:8.0 statute miles
3000(OVC) Overcast
KBFI 181821Z 16006KT 8SM -RA OVC030 10/09 A2978 RMK AO2 P0001 T01000089
MVFR 18:05:00 18-10-17
Automated station
Altimeter:29.78 hg
Temp:10.0°c 50°f
Dew point:8.3°c 46°f
Wind:7 knots, 8.1 mph, 4 m/s, from 150°
Visibility:10.0 statute miles
2900(OVC) Overcast
KBFI 181805Z 15007KT 10SM -RA OVC029 10/08 A2978 RMK AO2 P0000 T01000083
TAF
KBFI 181732Z 1818/1918 16013G20KT P6SM -RA BKN040 OVC050 FM182100 18020G30KT P6SM -RA BKN025 OVC035 FM190300 19012G22KT 4SM RA BR BKN015 OVC020 FM190900 18010KT 4SM -RA BKN015 OVC020 FM191400 18008KT P6SM -RA BKN020 OVC040
Forecast at KBFI
18:00 18-10-17 to 21:00 18-10-17
-RA
Wind:13 Knots from 160°
Visibility:6.21 statute miles
4000BKN Broken
5000OVC Overcast
FM 21:00 18-10-17 to 03:00 19-10-17
-RA
Wind:20 Knots from 180°
Visibility:6.21 statute miles
2500BKN Broken
3500OVC Overcast
FM 03:00 19-10-17 to 09:00 19-10-17
RA BR
Wind:12 Knots from 190°
Visibility:4.0 statute miles
1500BKN Broken
2000OVC Overcast
FM 09:00 19-10-17 to 14:00 19-10-17
-RA
Wind:10 Knots from 180°
Visibility:4.0 statute miles
1500BKN Broken
2000OVC Overcast
FM 14:00 19-10-17 to 18:00 19-10-17
-RA
Wind:8 Knots from 180°
Visibility:6.21 statute miles
2000BKN Broken
4000OVC Overcast